sensor_id;sensor_type;location;lat;lon;timestamp;temperature;humidity
20400;DHT22;10359;53.596;22.520;2023-08-07T00:01:32;20.20;99.90
20400;DHT22;10359;53.596;22.520;2023-08-07T00:04:02;20.30;99.90
20400;DHT22;10359;53.596;22.520;2023-08-07T00:06:32;20.30;99.90
20400;DHT22;10359;53.596;22.520;2023-08-07T00:09:03;20.30;99.90
20400;DHT22;10359;53.596;22.520;2023-08-07T00:11:33;20.40;99.90
20400;DHT22;10359;53.596;22.520;2023-08-07T00:14:02;20.40;99.90
20400;DHT22;10359;53.596;22.520;2023-08-07T00:16:32;20.50;99.90
20400;DHT22;10359;53.596;22.520;2023-08-07T00:19:02;20.50;99.90
20400;DHT22;10359;53.596;22.520;2023-08-07T00:21:31;20.60;99.90
20400;DHT22;10359;53.596;22.520;2023-08-07T00:24:05;20.60;75.60
20400;DHT22;10359;53.596;22.520;2023-08-07T00:26:34;20.50;46.00
20400;DHT22;10359;53.596;22.520;2023-08-07T00:29:04;20.60;87.20
20400;DHT22;10359;53.596;22.520;2023-08-07T00:31:32;20.60;78.10
20400;DHT22;10359;53.596;22.520;2023-08-07T00:34:03;20.70;23.30
20400;DHT22;10359;53.596;22.520;2023-08-07T00:36:33;20.70;46.30
20400;DHT22;10359;53.596;22.520;2023-08-07T00:39:02;20.70;23.30
20400;DHT22;10359;53.596;22.520;2023-08-07T00:41:33;20.70;23.40
20400;DHT22;10359;53.596;22.520;2023-08-07T00:44:03;20.60;23.30
20400;DHT22;10359;53.596;22.520;2023-08-07T00:46:33;20.60;34.80
20400;DHT22;10359;53.596;22.520;2023-08-07T00:49:03;20.70;24.00
20400;DHT22;10359;53.596;22.520;2023-08-07T00:51:33;20.70;23.30
20400;DHT22;10359;53.596;22.520;2023-08-07T00:54:04;20.70;23.30
20400;DHT22;10359;53.596;22.520;2023-08-07T00:56:35;20.80;23.40
20400;DHT22;10359;53.596;22.520;2023-08-07T00:59:06;20.70;23.30
20400;DHT22;10359;53.596;22.520;2023-08-07T01:01:36;20.80;23.90
20400;DHT22;10359;53.596;22.520;2023-08-07T01:04:05;20.90;23.50
20400;DHT22;10359;53.596;22.520;2023-08-07T01:06:34;20.90;23.50
20400;DHT22;10359;53.596;22.520;2023-08-07T01:09:03;20.90;23.40
20400;DHT22;10359;53.596;22.520;2023-08-07T01:11:39;20.90;23.50
20400;DHT22;10359;53.596;22.520;2023-08-07T01:14:22;20.90;23.40
20400;DHT22;10359;53.596;22.520;2023-08-07T01:16:59;20.90;17.40
20400;DHT22;10359;53.596;22.520;2023-08-07T01:19:29;20.80;1.00
20400;DHT22;10359;53.596;22.520;2023-08-07T01:22:08;20.50;1.00
20400;DHT22;10359;53.596;22.520;2023-08-07T01:24:39;20.30;1.00
20400;DHT22;10359;53.596;22.520;2023-08-07T01:27:22;20.00;1.00
20400;DHT22;10359;53.596;22.520;2023-08-07T01:29:59;19.90;1.00
20400;DHT22;10359;53.596;22.520;2023-08-07T01:32:43;19.80;1.00
20400;DHT22;10359;53.596;22.520;2023-08-07T01:35:16;19.60;1.00
20400;DHT22;10359;53.596;22.520;2023-08-07T01:37:48;19.50;1.00
20400;DHT22;10359;53.596;22.520;2023-08-07T01:40:20;19.40;1.00
20400;DHT22;10359;53.596;22.520;2023-08-07T01:42:50;19.20;1.00
20400;DHT22;10359;53.596;22.520;2023-08-07T01:45:23;19.00;1.00
20400;DHT22;10359;53.596;22.520;2023-08-07T01:47:53;18.90;1.00
20400;DHT22;10359;53.596;22.520;2023-08-07T01:50:23;18.70;1.00
20400;DHT22;10359;53.596;22.520;2023-08-07T01:52:54;18.70;1.00
20400;DHT22;10359;53.596;22.520;2023-08-07T01:55:24;18.60;1.00
20400;DHT22;10359;53.596;22.520;2023-08-07T01:57:53;18.60;1.00
20400;DHT22;10359;53.596;22.520;2023-08-07T02:00:22;18.30;1.00
20400;DHT22;10359;53.596;22.520;2023-08-07T02:02:51;18.40;1.00
20400;DHT22;10359;53.596;22.520;2023-08-07T02:05:21;18.20;1.00
20400;DHT22;10359;53.596;22.520;2023-08-07T02:07:50;18.20;1.00
20400;DHT22;10359;53.596;22.520;2023-08-07T02:10:21;18.20;1.00
20400;DHT22;10359;53.596;22.520;2023-08-07T02:12:51;18.10;1.00
20400;DHT22;10359;53.596;22.520;2023-08-07T02:15:20;18.10;1.00
20400;DHT22;10359;53.596;22.520;2023-08-07T02:17:49;18.00;1.00
20400;DHT22;10359;53.596;22.520;2023-08-07T02:20:19;17.90;1.00
20400;DHT22;10359;53.596;22.520;2023-08-07T02:22:48;17.90;1.00
20400;DHT22;10359;53.596;22.520;2023-08-07T02:25:17;17.80;1.00
20400;DHT22;10359;53.596;22.520;2023-08-07T02:27:48;17.80;1.00
20400;DHT22;10359;53.596;22.520;2023-08-07T02:30:18;17.80;1.00
20400;DHT22;10359;53.596;22.520;2023-08-07T02:32:47;17.80;1.00
20400;DHT22;10359;53.596;22.520;2023-08-07T02:35:17;17.70;1.00
20400;DHT22;10359;53.596;22.520;2023-08-07T02:37:46;17.70;1.00
20400;DHT22;10359;53.596;22.520;2023-08-07T02:40:15;17.80;1.00
20400;DHT22;10359;53.596;22.520;2023-08-07T02:42:48;17.60;1.00
20400;DHT22;10359;53.596;22.520;2023-08-07T02:45:17;17.60;1.00
20400;DHT22;10359;53.596;22.520;2023-08-07T02:47:47;17.60;1.00
20400;DHT22;10359;53.596;22.520;2023-08-07T02:50:16;17.60;1.00
20400;DHT22;10359;53.596;22.520;2023-08-07T02:52:46;17.60;1.00
20400;DHT22;10359;53.596;22.520;2023-08-07T02:55:16;17.60;1.00
20400;DHT22;10359;53.596;22.520;2023-08-07T02:57:45;17.60;1.00
20400;DHT22;10359;53.596;22.520;2023-08-07T03:00:16;17.60;1.00
20400;DHT22;10359;53.596;22.520;2023-08-07T03:02:45;17.60;1.00
20400;DHT22;10359;53.596;22.520;2023-08-07T03:05:16;17.60;1.00
20400;DHT22;10359;53.596;22.520;2023-08-07T03:07:45;17.60;1.00
20400;DHT22;10359;53.596;22.520;2023-08-07T03:10:14;17.60;1.00
20400;DHT22;10359;53.596;22.520;2023-08-07T03:12:46;17.60;1.00
20400;DHT22;10359;53.596;22.520;2023-08-07T03:15:26;17.60;1.00
20400;DHT22;10359;53.596;22.520;2023-08-07T03:18:03;17.60;1.00
20400;DHT22;10359;53.596;22.520;2023-08-07T03:20:38;17.60;1.00
20400;DHT22;10359;53.596;22.520;2023-08-07T03:23:13;17.60;1.00
20400;DHT22;10359;53.596;22.520;2023-08-07T03:25:50;17.60;1.00
20400;DHT22;10359;53.596;22.520;2023-08-07T03:28:44;17.60;1.00
20400;DHT22;10359;53.596;22.520;2023-08-07T03:31:27;17.50;1.00
20400;DHT22;10359;53.596;22.520;2023-08-07T03:34:06;17.60;1.00
20400;DHT22;10359;53.596;22.520;2023-08-07T03:36:39;17.60;1.00
20400;DHT22;10359;53.596;22.520;2023-08-07T03:39:08;17.50;1.00
20400;DHT22;10359;53.596;22.520;2023-08-07T03:41:39;17.60;1.00
20400;DHT22;10359;53.596;22.520;2023-08-07T03:44:08;17.60;1.00
20400;DHT22;10359;53.596;22.520;2023-08-07T03:46:39;17.60;1.00
20400;DHT22;10359;53.596;22.520;2023-08-07T03:49:08;17.60;1.00
20400;DHT22;10359;53.596;22.520;2023-08-07T03:51:39;17.70;1.00
20400;DHT22;10359;53.596;22.520;2023-08-07T03:54:08;17.60;1.00
20400;DHT22;10359;53.596;22.520;2023-08-07T03:56:37;17.50;1.00
20400;DHT22;10359;53.596;22.520;2023-08-07T03:59:06;17.50;1.00
20400;DHT22;10359;53.596;22.520;2023-08-07T04:01:36;17.40;1.00
20400;DHT22;10359;53.596;22.520;2023-08-07T04:04:07;17.40;1.00
20400;DHT22;10359;53.596;22.520;2023-08-07T04:06:36;17.40;1.00
20400;DHT22;10359;53.596;22.520;2023-08-07T04:09:09;17.30;1.00
20400;DHT22;10359;53.596;22.520;2023-08-07T04:11:40;17.30;1.00
20400;DHT22;10359;53.596;22.520;2023-08-07T04:14:09;17.20;1.00
20400;DHT22;10359;53.596;22.520;2023-08-07T04:16:39;17.20;1.00
20400;DHT22;10359;53.596;22.520;2023-08-07T04:19:09;17.20;1.00
20400;DHT22;10359;53.596;22.520;2023-08-07T04:21:39;17.20;1.00
20400;DHT22;10359;53.596;22.520;2023-08-07T04:24:09;17.20;1.00
20400;DHT22;10359;53.596;22.520;2023-08-07T04:26:39;17.20;1.00
20400;DHT22;10359;53.596;22.520;2023-08-07T04:29:08;17.30;1.00
20400;DHT22;10359;53.596;22.520;2023-08-07T04:31:38;17.40;1.00
20400;DHT22;10359;53.596;22.520;2023-08-07T04:34:09;17.60;1.00
20400;DHT22;10359;53.596;22.520;2023-08-07T04:36:40;17.70;1.00
20400;DHT22;10359;53.596;22.520;2023-08-07T04:39:09;17.50;1.00
20400;DHT22;10359;53.596;22.520;2023-08-07T04:41:40;17.60;1.00
20400;DHT22;10359;53.596;22.520;2023-08-07T04:44:10;17.60;1.00
20400;DHT22;10359;53.596;22.520;2023-08-07T04:46:40;17.60;1.00
20400;DHT22;10359;53.596;22.520;2023-08-07T04:49:12;17.50;1.00
20400;DHT22;10359;53.596;22.520;2023-08-07T04:51:42;17.40;1.00
20400;DHT22;10359;53.596;22.520;2023-08-07T04:54:12;17.30;1.00
20400;DHT22;10359;53.596;22.520;2023-08-07T04:56:41;17.40;1.00
20400;DHT22;10359;53.596;22.520;2023-08-07T04:59:12;17.30;1.00
20400;DHT22;10359;53.596;22.520;2023-08-07T05:01:42;17.50;1.00
20400;DHT22;10359;53.596;22.520;2023-08-07T05:04:13;17.60;1.00
20400;DHT22;10359;53.596;22.520;2023-08-07T05:06:42;17.60;1.00
20400;DHT22;10359;53.596;22.520;2023-08-07T05:09:11;17.60;1.00
20400;DHT22;10359;53.596;22.520;2023-08-07T05:11:41;17.80;1.00
20400;DHT22;10359;53.596;22.520;2023-08-07T05:14:10;17.70;1.00
20400;DHT22;10359;53.596;22.520;2023-08-07T05:16:39;17.90;1.00
20400;DHT22;10359;53.596;22.520;2023-08-07T05:19:09;17.80;1.00
20400;DHT22;10359;53.596;22.520;2023-08-07T05:21:40;17.90;1.00
20400;DHT22;10359;53.596;22.520;2023-08-07T05:24:09;17.70;1.00
20400;DHT22;10359;53.596;22.520;2023-08-07T05:26:40;17.50;1.00
20400;DHT22;10359;53.596;22.520;2023-08-07T05:29:09;17.50;1.00
20400;DHT22;10359;53.596;22.520;2023-08-07T05:31:39;17.40;1.00
20400;DHT22;10359;53.596;22.520;2023-08-07T05:34:09;17.40;1.00
20400;DHT22;10359;53.596;22.520;2023-08-07T05:36:40;17.30;1.00
20400;DHT22;10359;53.596;22.520;2023-08-07T05:39:09;17.10;1.00
20400;DHT22;10359;53.596;22.520;2023-08-07T05:41:38;17.20;1.00
20400;DHT22;10359;53.596;22.520;2023-08-07T05:44:08;17.10;1.00
20400;DHT22;10359;53.596;22.520;2023-08-07T05:46:38;17.10;1.00
20400;DHT22;10359;53.596;22.520;2023-08-07T05:49:07;17.10;1.00
20400;DHT22;10359;53.596;22.520;2023-08-07T05:51:36;17.30;1.00
20400;DHT22;10359;53.596;22.520;2023-08-07T05:54:07;17.50;1.00
20400;DHT22;10359;53.596;22.520;2023-08-07T05:56:38;17.60;1.00
20400;DHT22;10359;53.596;22.520;2023-08-07T05:59:07;17.40;1.00
20400;DHT22;10359;53.596;22.520;2023-08-07T06:01:36;17.50;1.00
20400;DHT22;10359;53.596;22.520;2023-08-07T06:04:06;17.50;1.00
20400;DHT22;10359;53.596;22.520;2023-08-07T06:06:36;17.80;1.00
20400;DHT22;10359;53.596;22.520;2023-08-07T06:09:08;18.10;1.00
20400;DHT22;10359;53.596;22.520;2023-08-07T06:11:38;18.10;1.00
20400;DHT22;10359;53.596;22.520;2023-08-07T06:14:07;18.20;1.00
20400;DHT22;10359;53.596;22.520;2023-08-07T06:16:36;18.30;1.00
20400;DHT22;10359;53.596;22.520;2023-08-07T06:19:06;18.30;1.00
20400;DHT22;10359;53.596;22.520;2023-08-07T06:21:51;18.50;1.00
20400;DHT22;10359;53.596;22.520;2023-08-07T06:24:23;18.60;1.00
20400;DHT22;10359;53.596;22.520;2023-08-07T06:26:53;18.60;1.00
20400;DHT22;10359;53.596;22.520;2023-08-07T06:29:22;18.60;1.00
20400;DHT22;10359;53.596;22.520;2023-08-07T06:31:52;18.60;1.00
20400;DHT22;10359;53.596;22.520;2023-08-07T06:34:22;18.50;1.00
20400;DHT22;10359;53.596;22.520;2023-08-07T06:36:51;18.40;1.00
20400;DHT22;10359;53.596;22.520;2023-08-07T06:39:22;18.70;1.00
20400;DHT22;10359;53.596;22.520;2023-08-07T06:41:51;19.20;1.00
20400;DHT22;10359;53.596;22.520;2023-08-07T06:44:21;19.30;1.00
20400;DHT22;10359;53.596;22.520;2023-08-07T06:46:50;19.20;1.00
20400;DHT22;10359;53.596;22.520;2023-08-07T06:49:20;19.60;1.00
20400;DHT22;10359;53.596;22.520;2023-08-07T06:51:49;19.40;1.00
20400;DHT22;10359;53.596;22.520;2023-08-07T06:54:18;19.20;1.00
20400;DHT22;10359;53.596;22.520;2023-08-07T06:56:50;19.00;1.00
20400;DHT22;10359;53.596;22.520;2023-08-07T06:59:19;19.40;1.00
20400;DHT22;10359;53.596;22.520;2023-08-07T07:01:48;19.70;1.00
20400;DHT22;10359;53.596;22.520;2023-08-07T07:04:45;19.50;1.00
20400;DHT22;10359;53.596;22.520;2023-08-07T07:07:14;19.20;1.00
20400;DHT22;10359;53.596;22.520;2023-08-07T07:09:44;19.50;1.00
20400;DHT22;10359;53.596;22.520;2023-08-07T07:12:15;19.20;1.00
20400;DHT22;10359;53.596;22.520;2023-08-07T07:14:45;19.70;1.00
20400;DHT22;10359;53.596;22.520;2023-08-07T07:17:15;19.70;1.00
20400;DHT22;10359;53.596;22.520;2023-08-07T07:19:44;20.10;1.00
20400;DHT22;10359;53.596;22.520;2023-08-07T07:22:13;20.10;1.00
20400;DHT22;10359;53.596;22.520;2023-08-07T07:24:43;19.80;1.00
20400;DHT22;10359;53.596;22.520;2023-08-07T07:27:14;19.40;1.00
20400;DHT22;10359;53.596;22.520;2023-08-07T07:29:43;19.20;1.00
20400;DHT22;10359;53.596;22.520;2023-08-07T07:32:12;19.00;1.00
20400;DHT22;10359;53.596;22.520;2023-08-07T07:34:41;18.90;1.00
20400;DHT22;10359;53.596;22.520;2023-08-07T07:37:11;18.90;1.00
20400;DHT22;10359;53.596;22.520;2023-08-07T07:39:41;18.90;1.00
20400;DHT22;10359;53.596;22.520;2023-08-07T07:42:10;19.10;1.00
20400;DHT22;10359;53.596;22.520;2023-08-07T07:44:41;18.90;1.00
20400;DHT22;10359;53.596;22.520;2023-08-07T07:47:11;18.50;1.00
20400;DHT22;10359;53.596;22.520;2023-08-07T07:49:45;18.30;1.00
20400;DHT22;10359;53.596;22.520;2023-08-07T07:52:15;18.10;1.00
20400;DHT22;10359;53.596;22.520;2023-08-07T07:54:45;18.00;1.00
20400;DHT22;10359;53.596;22.520;2023-08-07T07:57:14;18.10;1.00
20400;DHT22;10359;53.596;22.520;2023-08-07T07:59:47;18.40;1.00
20400;DHT22;10359;53.596;22.520;2023-08-07T08:02:17;18.70;1.00
20400;DHT22;10359;53.596;22.520;2023-08-07T08:04:47;18.70;1.00
20400;DHT22;10359;53.596;22.520;2023-08-07T08:07:16;18.60;1.00
20400;DHT22;10359;53.596;22.520;2023-08-07T08:09:46;18.40;1.00
20400;DHT22;10359;53.596;22.520;2023-08-07T08:12:15;18.30;1.00
20400;DHT22;10359;53.596;22.520;2023-08-07T08:14:45;18.10;1.00
20400;DHT22;10359;53.596;22.520;2023-08-07T08:17:23;17.90;1.00
20400;DHT22;10359;53.596;22.520;2023-08-07T08:19:52;18.00;1.00
20400;DHT22;10359;53.596;22.520;2023-08-07T08:22:22;18.30;1.00
20400;DHT22;10359;53.596;22.520;2023-08-07T08:24:51;18.80;1.00
20400;DHT22;10359;53.596;22.520;2023-08-07T08:27:21;19.40;1.00
20400;DHT22;10359;53.596;22.520;2023-08-07T08:29:52;19.80;1.00
20400;DHT22;10359;53.596;22.520;2023-08-07T08:32:23;19.90;1.00
20400;DHT22;10359;53.596;22.520;2023-08-07T08:34:53;19.40;1.00
20400;DHT22;10359;53.596;22.520;2023-08-07T08:37:22;19.20;1.00
20400;DHT22;10359;53.596;22.520;2023-08-07T08:39:52;19.10;1.00
20400;DHT22;10359;53.596;22.520;2023-08-07T08:42:21;19.10;1.00
20400;DHT22;10359;53.596;22.520;2023-08-07T08:44:54;19.30;1.00
20400;DHT22;10359;53.596;22.520;2023-08-07T08:47:26;19.70;1.00
20400;DHT22;10359;53.596;22.520;2023-08-07T08:50:00;19.90;1.00
20400;DHT22;10359;53.596;22.520;2023-08-07T08:52:31;19.90;1.00
20400;DHT22;10359;53.596;22.520;2023-08-07T08:55:01;19.60;1.00
20400;DHT22;10359;53.596;22.520;2023-08-07T08:57:33;19.40;1.00
20400;DHT22;10359;53.596;22.520;2023-08-07T09:00:05;19.20;1.00
20400;DHT22;10359;53.596;22.520;2023-08-07T09:02:44;19.30;1.00
20400;DHT22;10359;53.596;22.520;2023-08-07T09:05:15;19.30;1.00
20400;DHT22;10359;53.596;22.520;2023-08-07T09:07:47;19.60;1.00
20400;DHT22;10359;53.596;22.520;2023-08-07T09:10:17;19.90;1.00
20400;DHT22;10359;53.596;22.520;2023-08-07T09:12:53;19.90;1.00
20400;DHT22;10359;53.596;22.520;2023-08-07T09:15:26;19.50;1.00
20400;DHT22;10359;53.596;22.520;2023-08-07T09:17:58;19.30;1.00
20400;DHT22;10359;53.596;22.520;2023-08-07T09:20:28;19.20;1.00
20400;DHT22;10359;53.596;22.520;2023-08-07T09:22:58;18.90;1.00
20400;DHT22;10359;53.596;22.520;2023-08-07T09:25:28;19.00;1.00
20400;DHT22;10359;53.596;22.520;2023-08-07T09:27:57;19.10;1.00
20400;DHT22;10359;53.596;22.520;2023-08-07T09:30:29;19.40;1.00
20400;DHT22;10359;53.596;22.520;2023-08-07T09:33:00;20.10;1.00
20400;DHT22;10359;53.596;22.520;2023-08-07T09:35:30;21.30;99.90
20400;DHT22;10359;53.596;22.520;2023-08-07T09:38:01;21.50;99.90
20400;DHT22;10359;53.596;22.520;2023-08-07T09:40:31;21.50;99.90
20400;DHT22;10359;53.596;22.520;2023-08-07T09:43:01;21.40;99.90
20400;DHT22;10359;53.596;22.520;2023-08-07T09:45:35;21.20;99.90
20400;DHT22;10359;53.596;22.520;2023-08-07T09:48:10;20.70;99.90
20400;DHT22;10359;53.596;22.520;2023-08-07T09:50:40;20.30;99.90
20400;DHT22;10359;53.596;22.520;2023-08-07T09:53:10;20.10;99.90
20400;DHT22;10359;53.596;22.520;2023-08-07T09:55:39;20.60;99.90
20400;DHT22;10359;53.596;22.520;2023-08-07T09:58:12;21.10;99.90
20400;DHT22;10359;53.596;22.520;2023-08-07T10:00:43;21.90;99.90
20400;DHT22;10359;53.596;22.520;2023-08-07T10:03:15;22.30;99.90
20400;DHT22;10359;53.596;22.520;2023-08-07T10:05:46;21.70;99.90
20400;DHT22;10359;53.596;22.520;2023-08-07T10:08:16;21.90;99.90
20400;DHT22;10359;53.596;22.520;2023-08-07T10:10:46;21.70;99.90
20400;DHT22;10359;53.596;22.520;2023-08-07T10:13:16;21.80;99.90
20400;DHT22;10359;53.596;22.520;2023-08-07T10:15:56;22.10;99.90
20400;DHT22;10359;53.596;22.520;2023-08-07T10:18:25;22.50;99.90
20400;DHT22;10359;53.596;22.520;2023-08-07T10:20:55;22.70;99.90
20400;DHT22;10359;53.596;22.520;2023-08-07T10:23:26;22.70;99.90
20400;DHT22;10359;53.596;22.520;2023-08-07T10:25:56;22.10;99.90
20400;DHT22;10359;53.596;22.520;2023-08-07T10:28:26;21.20;99.90
20400;DHT22;10359;53.596;22.520;2023-08-07T10:30:58;21.10;99.90
20400;DHT22;10359;53.596;22.520;2023-08-07T10:33:28;21.00;99.90
20400;DHT22;10359;53.596;22.520;2023-08-07T10:35:58;20.90;99.90
20400;DHT22;10359;53.596;22.520;2023-08-07T10:38:28;20.80;99.90
20400;DHT22;10359;53.596;22.520;2023-08-07T10:41:06;20.90;99.90
20400;DHT22;10359;53.596;22.520;2023-08-07T10:43:39;20.80;99.90
20400;DHT22;10359;53.596;22.520;2023-08-07T10:46:14;20.80;99.90
20400;DHT22;10359;53.596;22.520;2023-08-07T10:48:45;21.30;99.90
20400;DHT22;10359;53.596;22.520;2023-08-07T10:51:16;21.60;99.90
20400;DHT22;10359;53.596;22.520;2023-08-07T10:53:48;21.90;99.90
20400;DHT22;10359;53.596;22.520;2023-08-07T10:56:31;21.90;99.90
20400;DHT22;10359;53.596;22.520;2023-08-07T10:59:08;21.70;99.90
20400;DHT22;10359;53.596;22.520;2023-08-07T11:01:44;21.70;99.90
20400;DHT22;10359;53.596;22.520;2023-08-07T11:04:21;21.70;99.90
20400;DHT22;10359;53.596;22.520;2023-08-07T11:06:52;22.00;99.90
20400;DHT22;10359;53.596;22.520;2023-08-07T11:09:22;22.00;99.90
20400;DHT22;10359;53.596;22.520;2023-08-07T11:11:51;22.00;99.90
20400;DHT22;10359;53.596;22.520;2023-08-07T11:14:21;22.00;99.90
20400;DHT22;10359;53.596;22.520;2023-08-07T11:16:52;21.80;99.90
20400;DHT22;10359;53.596;22.520;2023-08-07T11:19:23;21.60;99.90
20400;DHT22;10359;53.596;22.520;2023-08-07T11:21:53;21.80;99.90
20400;DHT22;10359;53.596;22.520;2023-08-07T11:24:27;21.30;99.90
20400;DHT22;10359;53.596;22.520;2023-08-07T11:26:56;21.00;99.90
20400;DHT22;10359;53.596;22.520;2023-08-07T11:29:30;20.70;99.90
20400;DHT22;10359;53.596;22.520;2023-08-07T11:32:00;20.90;99.90
20400;DHT22;10359;53.596;22.520;2023-08-07T11:34:31;20.90;99.90
20400;DHT22;10359;53.596;22.520;2023-08-07T11:37:01;20.90;99.90
20400;DHT22;10359;53.596;22.520;2023-08-07T11:39:30;20.90;99.90
20400;DHT22;10359;53.596;22.520;2023-08-07T11:42:00;21.10;99.90
20400;DHT22;10359;53.596;22.520;2023-08-07T11:44:33;21.50;99.90
20400;DHT22;10359;53.596;22.520;2023-08-07T11:47:04;20.80;99.90
20400;DHT22;10359;53.596;22.520;2023-08-07T11:49:34;20.80;99.90
20400;DHT22;10359;53.596;22.520;2023-08-07T11:52:04;20.80;99.90
20400;DHT22;10359;53.596;22.520;2023-08-07T11:54:34;20.70;99.90
20400;DHT22;10359;53.596;22.520;2023-08-07T11:57:14;20.70;99.90
20400;DHT22;10359;53.596;22.520;2023-08-07T11:59:46;20.90;99.90
20400;DHT22;10359;53.596;22.520;2023-08-07T12:02:22;21.20;99.90
20400;DHT22;10359;53.596;22.520;2023-08-07T12:04:57;21.40;99.90
20400;DHT22;10359;53.596;22.520;2023-08-07T12:07:28;20.90;99.90
20400;DHT22;10359;53.596;22.520;2023-08-07T12:10:02;21.50;99.90
20400;DHT22;10359;53.596;22.520;2023-08-07T12:12:33;21.20;99.90
20400;DHT22;10359;53.596;22.520;2023-08-07T12:15:04;20.70;99.90
20400;DHT22;10359;53.596;22.520;2023-08-07T12:17:37;20.70;99.90
20400;DHT22;10359;53.596;22.520;2023-08-07T12:20:07;20.50;99.90
20400;DHT22;10359;53.596;22.520;2023-08-07T12:22:39;20.20;99.90
20400;DHT22;10359;53.596;22.520;2023-08-07T12:25:09;20.10;99.90
20400;DHT22;10359;53.596;22.520;2023-08-07T12:27:39;19.70;99.90
20400;DHT22;10359;53.596;22.520;2023-08-07T12:30:09;19.50;99.90
20400;DHT22;10359;53.596;22.520;2023-08-07T12:32:40;19.40;99.90
20400;DHT22;10359;53.596;22.520;2023-08-07T12:35:09;19.50;99.90
20400;DHT22;10359;53.596;22.520;2023-08-07T12:37:42;19.40;99.90
20400;DHT22;10359;53.596;22.520;2023-08-07T12:40:12;19.30;99.90
20400;DHT22;10359;53.596;22.520;2023-08-07T12:42:47;19.40;99.90
20400;DHT22;10359;53.596;22.520;2023-08-07T12:45:17;19.60;99.90
20400;DHT22;10359;53.596;22.520;2023-08-07T12:48:08;19.70;99.90
20400;DHT22;10359;53.596;22.520;2023-08-07T12:50:38;20.00;99.90
20400;DHT22;10359;53.596;22.520;2023-08-07T12:53:08;20.40;99.90
20400;DHT22;10359;53.596;22.520;2023-08-07T12:55:37;20.00;99.90
20400;DHT22;10359;53.596;22.520;2023-08-07T12:58:07;20.00;99.90
20400;DHT22;10359;53.596;22.520;2023-08-07T13:00:36;20.20;99.90
20400;DHT22;10359;53.596;22.520;2023-08-07T13:03:08;20.50;99.90
20400;DHT22;10359;53.596;22.520;2023-08-07T13:05:37;20.80;99.90
20400;DHT22;10359;53.596;22.520;2023-08-07T13:08:06;21.20;99.90
20400;DHT22;10359;53.596;22.520;2023-08-07T13:10:36;20.80;99.90
20400;DHT22;10359;53.596;22.520;2023-08-07T13:13:07;20.70;99.90
20400;DHT22;10359;53.596;22.520;2023-08-07T13:15:36;20.40;99.90
20400;DHT22;10359;53.596;22.520;2023-08-07T13:18:07;20.20;99.90
20400;DHT22;10359;53.596;22.520;2023-08-07T13:20:36;20.60;99.90
20400;DHT22;10359;53.596;22.520;2023-08-07T13:23:05;21.30;99.90
20400;DHT22;10359;53.596;22.520;2023-08-07T13:25:35;21.10;99.90
20400;DHT22;10359;53.596;22.520;2023-08-07T13:28:04;20.70;99.90
20400;DHT22;10359;53.596;22.520;2023-08-07T13:30:34;20.60;99.90
20400;DHT22;10359;53.596;22.520;2023-08-07T13:33:04;20.80;99.90
20400;DHT22;10359;53.596;22.520;2023-08-07T13:35:35;21.60;99.90
20400;DHT22;10359;53.596;22.520;2023-08-07T13:38:05;21.70;99.90
20400;DHT22;10359;53.596;22.520;2023-08-07T13:40:38;22.10;99.90
20400;DHT22;10359;53.596;22.520;2023-08-07T13:43:08;22.50;99.90
20400;DHT22;10359;53.596;22.520;2023-08-07T13:45:38;22.90;99.90
20400;DHT22;10359;53.596;22.520;2023-08-07T13:48:08;22.00;99.90
20400;DHT22;10359;53.596;22.520;2023-08-07T13:50:40;21.70;99.90
20400;DHT22;10359;53.596;22.520;2023-08-07T13:53:10;21.40;99.90
20400;DHT22;10359;53.596;22.520;2023-08-07T13:55:43;20.90;99.90
20400;DHT22;10359;53.596;22.520;2023-08-07T13:58:16;20.60;99.90
20400;DHT22;10359;53.596;22.520;2023-08-07T14:00:46;20.60;99.90
20400;DHT22;10359;53.596;22.520;2023-08-07T14:03:18;20.50;99.90
20400;DHT22;10359;53.596;22.520;2023-08-07T14:05:50;20.80;99.90
20400;DHT22;10359;53.596;22.520;2023-08-07T14:08:22;20.70;99.90
20400;DHT22;10359;53.596;22.520;2023-08-07T14:10:52;21.30;99.90
20400;DHT22;10359;53.596;22.520;2023-08-07T14:13:22;22.20;99.90
20400;DHT22;10359;53.596;22.520;2023-08-07T14:15:54;21.80;99.90
20400;DHT22;10359;53.596;22.520;2023-08-07T14:18:24;21.60;99.90
20400;DHT22;10359;53.596;22.520;2023-08-07T14:20:56;21.40;99.90
20400;DHT22;10359;53.596;22.520;2023-08-07T14:23:29;21.40;99.90
20400;DHT22;10359;53.596;22.520;2023-08-07T14:26:00;21.10;99.90
20400;DHT22;10359;53.596;22.520;2023-08-07T14:28:30;21.00;99.90
20400;DHT22;10359;53.596;22.520;2023-08-07T14:31:00;21.10;99.90
20400;DHT22;10359;53.596;22.520;2023-08-07T14:33:29;21.20;99.90
20400;DHT22;10359;53.596;22.520;2023-08-07T14:36:00;20.90;99.90
20400;DHT22;10359;53.596;22.520;2023-08-07T14:38:29;20.50;99.90
20400;DHT22;10359;53.596;22.520;2023-08-07T14:40:59;20.10;99.90
20400;DHT22;10359;53.596;22.520;2023-08-07T14:43:30;20.00;99.90
20400;DHT22;10359;53.596;22.520;2023-08-07T14:46:00;19.80;99.90
20400;DHT22;10359;53.596;22.520;2023-08-07T14:48:29;19.70;99.90
20400;DHT22;10359;53.596;22.520;2023-08-07T14:51:00;19.80;99.90
20400;DHT22;10359;53.596;22.520;2023-08-07T14:53:29;20.00;99.90
20400;DHT22;10359;53.596;22.520;2023-08-07T14:55:58;20.30;99.90
20400;DHT22;10359;53.596;22.520;2023-08-07T14:58:28;20.80;99.90
20400;DHT22;10359;53.596;22.520;2023-08-07T15:01:01;20.70;99.90
20400;DHT22;10359;53.596;22.520;2023-08-07T15:03:31;20.80;99.90
20400;DHT22;10359;53.596;22.520;2023-08-07T15:06:02;20.80;99.90
20400;DHT22;10359;53.596;22.520;2023-08-07T15:08:32;21.20;99.90
20400;DHT22;10359;53.596;22.520;2023-08-07T15:11:02;21.30;99.90
20400;DHT22;10359;53.596;22.520;2023-08-07T15:13:31;21.10;99.90
20400;DHT22;10359;53.596;22.520;2023-08-07T15:16:01;20.90;99.90
20400;DHT22;10359;53.596;22.520;2023-08-07T15:18:31;21.10;99.90
20400;DHT22;10359;53.596;22.520;2023-08-07T15:21:04;21.30;99.90
20400;DHT22;10359;53.596;22.520;2023-08-07T15:23:33;21.20;99.90
20400;DHT22;10359;53.596;22.520;2023-08-07T15:26:03;20.80;99.90
20400;DHT22;10359;53.596;22.520;2023-08-07T15:28:32;20.90;99.90
20400;DHT22;10359;53.596;22.520;2023-08-07T15:31:02;20.80;99.90
20400;DHT22;10359;53.596;22.520;2023-08-07T15:33:32;20.80;99.90
20400;DHT22;10359;53.596;22.520;2023-08-07T15:36:04;21.00;99.90
20400;DHT22;10359;53.596;22.520;2023-08-07T15:38:33;20.60;99.90
20400;DHT22;10359;53.596;22.520;2023-08-07T15:41:06;20.80;99.90
20400;DHT22;10359;53.596;22.520;2023-08-07T15:43:36;20.80;99.90
20400;DHT22;10359;53.596;22.520;2023-08-07T15:46:05;20.80;99.90